createdAt,value
2016-05-08T00:00:53.838Z,44
2016-05-08T00:01:52.277Z,43
2016-05-08T00:02:50.202Z,43
2016-05-08T00:03:48.283Z,43
2016-05-08T00:04:49.318Z,43
2016-05-08T00:05:47.351Z,43
2016-05-08T00:06:45.385Z,43
2016-05-08T00:07:43.482Z,43
2016-05-08T00:08:41.453Z,44
2016-05-08T00:09:39.721Z,44
2016-05-08T00:10:38.037Z,44
2016-05-08T00:11:36.258Z,44
2016-05-08T00:12:34.620Z,44
2016-05-08T00:13:33.076Z,44
2016-05-08T00:14:34.109Z,44
2016-05-08T00:15:32.269Z,44
2016-05-08T00:16:30.503Z,44
2016-05-08T00:17:28.959Z,44
2016-05-08T00:18:27.118Z,44
2016-05-08T00:19:25.355Z,44
2016-05-08T00:20:23.701Z,44
2016-05-08T00:21:21.985Z,44
2016-05-08T00:22:20.394Z,44
2016-05-08T00:23:18.632Z,44
2016-05-08T00:24:19.641Z,44
2016-05-08T00:25:18.191Z,44
2016-05-08T00:26:16.724Z,45
2016-05-08T00:27:15.852Z,45
2016-05-08T00:28:14.323Z,45
2016-05-08T00:29:13.093Z,45
2016-05-08T00:30:11.892Z,45
2016-05-08T00:31:10.957Z,45
2016-05-08T00:32:09.976Z,45
2016-05-08T00:33:09.212Z,46
2016-05-08T00:34:10.152Z,46
2016-05-08T00:35:09.420Z,46
2016-05-08T00:36:08.720Z,46
2016-05-08T00:37:08.145Z,46
2016-05-08T00:38:07.335Z,46
2016-05-08T00:39:06.650Z,46
2016-05-08T00:40:05.934Z,46
2016-05-08T00:41:05.499Z,46
2016-05-08T00:42:05.064Z,47
2016-05-08T00:43:05.145Z,47
2016-05-08T00:44:06.055Z,48
2016-05-08T00:45:06.244Z,49
2016-05-08T00:46:07.106Z,49
2016-05-08T00:47:08.156Z,50
2016-05-08T00:48:09.487Z,50
2016-05-08T00:49:11.114Z,51
2016-05-08T00:50:08.789Z,51
2016-05-08T00:51:06.916Z,52
2016-05-08T00:52:05.201Z,52
2016-05-08T00:53:03.562Z,52
2016-05-08T00:54:04.628Z,53
2016-05-08T00:55:03.255Z,53
2016-05-08T00:56:02.118Z,53
2016-05-08T00:57:01.167Z,53
2016-05-08T00:58:00.232Z,54
2016-05-08T00:58:59.547Z,54
2016-05-08T00:59:58.832Z,54
2016-05-08T01:00:58.538Z,54
2016-05-08T01:01:58.056Z,54
2016-05-08T01:02:57.573Z,55
2016-05-08T01:03:58.577Z,55
2016-05-08T01:04:58.392Z,54
2016-05-08T01:05:57.973Z,54
2016-05-08T01:06:57.273Z,53
2016-05-08T01:07:56.306Z,53
2016-05-08T01:08:55.058Z,52
2016-05-08T01:09:53.780Z,52
2016-05-08T01:10:52.080Z,51
2016-05-08T01:11:50.036Z,51
2016-05-08T01:12:48.211Z,51
2016-05-08T01:13:48.963Z,51
2016-05-08T01:14:46.716Z,50
2016-05-08T01:15:48.156Z,50
2016-05-08T01:16:49.550Z,50
2016-05-08T01:17:50.911Z,50
2016-05-08T01:18:52.211Z,50
2016-05-08T01:19:53.541Z,50
2016-05-08T01:20:54.872Z,50
2016-05-08T01:21:56.328Z,49
2016-05-08T01:22:57.347Z,49
2016-05-08T01:23:58.365Z,49
2016-05-08T01:24:59.462Z,49
2016-05-08T01:26:00.199Z,49
2016-05-08T01:27:01.092Z,49
2016-05-08T01:28:01.923Z,49
2016-05-08T01:29:02.739Z,49
2016-05-08T01:30:03.569Z,49
2016-05-08T01:31:04.510Z,49
2016-05-08T01:32:05.262Z,49
2016-05-08T01:33:06.047Z,49
2016-05-08T01:34:07.127Z,49
2016-05-08T01:35:07.958Z,49
2016-05-08T01:36:08.788Z,49
2016-05-08T01:37:09.604Z,49
2016-05-08T01:38:10.543Z,49
2016-05-08T01:39:11.313Z,49
2016-05-08T01:40:12.190Z,49
2016-05-08T01:41:13.021Z,49
2016-05-08T01:42:13.836Z,49
2016-05-08T01:43:14.542Z,49
2016-05-08T01:44:15.748Z,49
2016-05-08T01:45:16.423Z,49
2016-05-08T01:46:17.393Z,49
2016-05-08T01:47:18.100Z,49
2016-05-08T01:48:19.040Z,49
2016-05-08T01:49:19.745Z,49
2016-05-08T01:50:20.576Z,49
2016-05-08T01:51:21.407Z,49
2016-05-08T01:52:22.363Z,49
2016-05-08T01:53:23.100Z,49
2016-05-08T01:54:24.181Z,49
2016-05-08T01:55:24.887Z,49
2016-05-08T01:56:25.827Z,49
2016-05-08T01:57:26.611Z,49
2016-05-08T01:58:27.425Z,49
2016-05-08T01:59:28.241Z,49
2016-05-08T02:00:29.260Z,49
2016-05-08T02:01:30.403Z,49
2016-05-08T02:02:31.609Z,49
2016-05-08T02:03:32.611Z,49
2016-05-08T02:04:33.645Z,49
2016-05-08T02:05:34.760Z,49
2016-05-08T02:06:35.919Z,49
2016-05-08T02:07:36.875Z,49
2016-05-08T02:08:37.971Z,50
2016-05-08T02:09:39.239Z,50
2016-05-08T02:10:40.649Z,50
2016-05-08T02:11:41.902Z,50
2016-05-08T02:12:43.310Z,50
2016-05-08T02:13:44.626Z,50
2016-05-08T02:14:45.643Z,51
2016-05-08T02:15:43.474Z,51
2016-05-08T02:16:41.273Z,51
2016-05-08T02:17:39.434Z,52
2016-05-08T02:18:37.592Z,52
2016-05-08T02:19:35.829Z,52
2016-05-08T02:20:34.376Z,52
2016-05-08T02:21:32.894Z,53
2016-05-08T02:22:31.772Z,53
2016-05-08T02:23:30.540Z,53
2016-05-08T02:24:31.653Z,53
2016-05-08T02:25:30.686Z,53
2016-05-08T02:26:29.736Z,54
2016-05-08T02:27:29.191Z,54
2016-05-08T02:28:28.381Z,54
2016-05-08T02:29:27.759Z,54
2016-05-08T02:30:27.216Z,54
2016-05-08T02:31:26.780Z,54
2016-05-08T02:32:26.189Z,54
2016-05-08T02:33:25.552Z,53
2016-05-08T02:34:26.444Z,53
2016-05-08T02:35:25.244Z,53
2016-05-08T02:36:24.060Z,52
2016-05-08T02:37:22.609Z,52
2016-05-08T02:38:20.908Z,52
2016-05-08T02:39:19.193Z,51
2016-05-08T02:40:17.226Z,51
2016-05-08T02:41:15.323Z,51
2016-05-08T02:42:14.249Z,51
2016-05-08T02:43:10.955Z,51
2016-05-08T02:44:12.020Z,51
2016-05-08T02:45:09.852Z,51
2016-05-08T02:46:07.699Z,50
2016-05-08T02:47:09.323Z,50
2016-05-08T02:48:10.907Z,50
2016-05-08T02:49:12.504Z,50
2016-05-08T02:50:14.086Z,50
2016-05-08T02:51:15.716Z,50
2016-05-08T02:52:17.321Z,50
2016-05-08T02:53:19.080Z,50
2016-05-08T02:54:20.106Z,50
2016-05-08T02:55:21.317Z,50
2016-05-08T02:56:22.653Z,50
2016-05-08T02:57:24.004Z,50
2016-05-08T02:58:25.321Z,50
2016-05-08T02:59:26.592Z,50
2016-05-08T03:00:27.988Z,50
2016-05-08T03:01:29.258Z,50
2016-05-08T03:02:30.653Z,50
2016-05-08T03:03:32.156Z,50
2016-05-08T03:04:33.065Z,50
2016-05-08T03:05:34.538Z,50
2016-05-08T03:06:35.667Z,50
2016-05-08T03:07:37.189Z,50
2016-05-08T03:08:38.520Z,50
2016-05-08T03:09:39.726Z,50
2016-05-08T03:10:41.057Z,50
2016-05-08T03:11:42.419Z,50
2016-05-08T03:12:43.844Z,50
2016-05-08T03:13:45.112Z,50
2016-05-08T03:14:46.130Z,50
2016-05-08T03:15:47.461Z,50
2016-05-08T03:16:48.918Z,50
2016-05-08T03:17:50.420Z,50
2016-05-08T03:18:51.923Z,50
2016-05-08T03:19:53.550Z,50
2016-05-08T03:20:55.147Z,50
2016-05-08T03:21:56.728Z,51
2016-05-08T03:22:54.637Z,50
2016-05-08T03:23:56.092Z,51
2016-05-08T03:24:57.111Z,51
2016-05-08T03:25:54.956Z,50
2016-05-08T03:26:56.585Z,51
2016-05-08T03:27:54.494Z,51
2016-05-08T03:28:52.122Z,51
2016-05-08T03:29:49.905Z,51
2016-05-08T03:30:47.628Z,51
2016-05-08T03:31:45.472Z,51
2016-05-08T03:32:43.508Z,51
2016-05-08T03:33:41.603Z,52
2016-05-08T03:34:42.621Z,52
2016-05-08T03:35:40.922Z,52
2016-05-08T03:36:39.424Z,53
2016-05-08T03:37:38.333Z,53
2016-05-08T03:38:37.005Z,53
2016-05-08T03:39:35.804Z,53
2016-05-08T03:40:34.604Z,53
2016-05-08T03:41:33.341Z,53
2016-05-08T03:42:32.343Z,53
2016-05-08T03:43:31.441Z,53
2016-05-08T03:44:31.912Z,53
2016-05-08T03:45:31.133Z,53
2016-05-08T03:46:29.979Z,53
2016-05-08T03:47:28.763Z,53
2016-05-08T03:48:27.548Z,53
2016-05-08T03:49:26.332Z,53
2016-05-08T03:50:25.115Z,53
2016-05-08T03:51:23.931Z,53
2016-05-08T03:52:22.729Z,53
2016-05-08T03:53:21.561Z,53
2016-05-08T03:54:22.595Z,53
2016-05-08T03:55:21.379Z,53
2016-05-08T03:56:20.209Z,53
2016-05-08T03:57:19.712Z,53
2016-05-08T03:58:18.293Z,54
2016-05-08T03:59:17.702Z,54
2016-05-08T04:00:16.892Z,54
2016-05-08T04:01:16.317Z,53
2016-05-08T04:02:15.257Z,53
2016-05-08T04:03:14.478Z,53
2016-05-08T04:04:15.387Z,53
2016-05-08T04:05:14.202Z,52
2016-05-08T04:06:12.799Z,52
2016-05-08T04:07:11.411Z,52
2016-05-08T04:08:09.523Z,52
2016-05-08T04:09:07.869Z,52
2016-05-08T04:10:06.169Z,52
2016-05-08T04:11:04.485Z,51
2016-05-08T04:12:02.503Z,51
2016-05-08T04:13:00.552Z,51
2016-05-08T04:14:01.743Z,51
2016-05-08T04:14:59.713Z,51
2016-05-08T04:15:57.373Z,51
2016-05-08T04:16:55.172Z,51
2016-05-08T04:17:53.019Z,51
2016-05-08T04:18:50.802Z,51
2016-05-08T04:19:48.571Z,51
2016-05-08T04:20:46.480Z,51
2016-05-08T04:21:44.202Z,51
2016-05-08T04:22:42.017Z,51
2016-05-08T04:23:43.003Z,51
2016-05-08T04:24:40.928Z,51
2016-05-08T04:25:38.571Z,51
2016-05-08T04:26:36.353Z,51
2016-05-08T04:27:34.449Z,51
2016-05-08T04:28:31.859Z,51
2016-05-08T04:29:29.720Z,50
2016-05-08T04:30:31.300Z,51
2016-05-08T04:31:29.084Z,51
2016-05-08T04:32:26.917Z,51
2016-05-08T04:33:27.934Z,51
2016-05-08T04:34:25.733Z,51
2016-05-08T04:35:23.455Z,51
2016-05-08T04:36:21.332Z,51
2016-05-08T04:37:19.195Z,51
2016-05-08T04:38:16.853Z,51
2016-05-08T04:39:14.638Z,51
2016-05-08T04:40:12.421Z,51
2016-05-08T04:41:10.331Z,51
2016-05-08T04:42:08.052Z,51
2016-05-08T04:43:09.507Z,51
2016-05-08T04:44:06.854Z,51
2016-05-08T04:45:04.639Z,51
2016-05-08T04:46:02.546Z,51
2016-05-08T04:47:00.222Z,51
2016-05-08T04:47:58.287Z,51
2016-05-08T04:48:56.039Z,51
2016-05-08T04:49:53.823Z,51
2016-05-08T04:50:51.608Z,51
2016-05-08T04:51:49.704Z,51
2016-05-08T04:52:50.644Z,51
2016-05-08T04:53:48.756Z,51
2016-05-08T04:54:46.790Z,51
2016-05-08T04:55:44.776Z,51
2016-05-08T04:56:42.921Z,51
2016-05-08T04:57:41.032Z,51
2016-05-08T04:58:38.941Z,51
2016-05-08T04:59:37.097Z,51
2016-05-08T05:00:35.147Z,52
2016-05-08T05:01:33.369Z,52
2016-05-08T05:02:34.387Z,52
2016-05-08T05:03:32.671Z,52
2016-05-08T05:04:31.236Z,52
2016-05-08T05:05:29.755Z,52
2016-05-08T05:06:28.428Z,52
2016-05-08T05:07:26.853Z,53
2016-05-08T05:08:25.622Z,53
2016-05-08T05:09:24.437Z,53
2016-05-08T05:10:23.221Z,53
2016-05-08T05:11:22.099Z,52
2016-05-08T05:12:23.633Z,52
2016-05-08T05:13:21.666Z,52
2016-05-08T05:14:20.154Z,52
2016-05-08T05:15:18.500Z,52
2016-05-08T05:16:16.784Z,52
2016-05-08T05:17:15.068Z,52
2016-05-08T05:18:13.336Z,52
2016-05-08T05:19:11.838Z,52
2016-05-08T05:20:09.998Z,51
2016-05-08T05:21:08.001Z,51
2016-05-08T05:22:09.066Z,51
2016-05-08T05:23:07.099Z,51
2016-05-08T05:24:05.134Z,51
2016-05-08T05:25:03.309Z,51
2016-05-08T05:26:01.202Z,51
2016-05-08T05:26:59.235Z,51
2016-05-08T05:27:57.192Z,51
2016-05-08T05:28:54.803Z,51
2016-05-08T05:29:52.525Z,51
2016-05-08T05:30:50.371Z,51
2016-05-08T05:31:51.453Z,51
2016-05-08T05:32:49.236Z,51
2016-05-08T05:33:47.020Z,51
2016-05-08T05:34:44.836Z,50
2016-05-08T05:35:46.401Z,50
2016-05-08T05:36:47.997Z,50
2016-05-08T05:37:49.671Z,50
2016-05-08T05:38:51.142Z,50
2016-05-08T05:39:52.739Z,50
2016-05-08T05:40:54.242Z,50
2016-05-08T05:41:55.151Z,50
2016-05-08T05:42:56.482Z,50
2016-05-08T05:43:57.765Z,50
2016-05-08T05:44:59.127Z,50
2016-05-08T05:46:00.459Z,50
2016-05-08T05:47:01.805Z,50
2016-05-08T05:48:03.121Z,50
2016-05-08T05:49:04.560Z,50
2016-05-08T05:50:05.719Z,49
2016-05-08T05:51:06.909Z,49
2016-05-08T05:52:07.913Z,49
2016-05-08T05:53:08.993Z,49
2016-05-08T05:54:10.183Z,49
2016-05-08T05:55:11.014Z,49
2016-05-08T05:56:11.704Z,49
2016-05-08T05:57:12.237Z,49
2016-05-08T05:58:13.365Z,49
2016-05-08T05:59:14.306Z,48
2016-05-08T06:00:14.778Z,48
2016-05-08T06:01:15.389Z,48
2016-05-08T06:02:16.408Z,48
2016-05-08T06:03:16.739Z,48
2016-05-08T06:04:17.164Z,48
2016-05-08T06:05:17.354Z,48
2016-05-08T06:06:17.669Z,48
2016-05-08T06:07:17.983Z,48
2016-05-08T06:08:18.252Z,47
2016-05-08T06:09:18.380Z,47
2016-05-08T06:10:18.538Z,47
2016-05-08T06:11:18.573Z,47
2016-05-08T06:12:19.575Z,47
2016-05-08T06:13:19.500Z,47
2016-05-08T06:14:19.300Z,47
2016-05-08T06:15:18.989Z,47
2016-05-08T06:16:18.789Z,47
2016-05-08T06:17:18.604Z,47
2016-05-08T06:18:18.560Z,47
2016-05-08T06:19:18.235Z,46
2016-05-08T06:20:17.785Z,46
2016-05-08T06:21:17.396Z,46
2016-05-08T06:22:18.446Z,46
2016-05-08T06:23:18.089Z,46
2016-05-08T06:24:17.201Z,46
2016-05-08T06:25:16.563Z,46
2016-05-08T06:26:15.972Z,46
2016-05-08T06:27:15.288Z,46
2016-05-08T06:28:14.634Z,46
2016-05-08T06:29:13.871Z,46
2016-05-08T06:30:13.076Z,46
2016-05-08T06:31:12.439Z,46
2016-05-08T06:32:13.457Z,46
2016-05-08T06:33:12.741Z,45
2016-05-08T06:34:11.728Z,45
2016-05-08T06:35:10.950Z,45
2016-05-08T06:36:10.000Z,45
2016-05-08T06:37:08.861Z,45
2016-05-08T06:38:07.973Z,45
2016-05-08T06:39:07.022Z,45
2016-05-08T06:40:06.119Z,45
2016-05-08T06:41:04.856Z,45
2016-05-08T06:42:05.937Z,45
2016-05-08T06:43:04.753Z,45
2016-05-08T06:44:03.521Z,45
2016-05-08T06:45:02.320Z,45
2016-05-08T06:46:01.136Z,45
2016-05-08T06:46:59.935Z,45
2016-05-08T06:47:58.813Z,45
2016-05-08T06:48:57.488Z,45
2016-05-08T06:49:56.271Z,45
2016-05-08T06:50:55.071Z,45
2016-05-08T06:51:56.136Z,45
2016-05-08T06:52:54.983Z,45
2016-05-08T06:53:53.751Z,44
2016-05-08T06:54:52.285Z,45
2016-05-08T06:55:51.068Z,44
2016-05-08T06:56:49.602Z,44
2016-05-08T06:57:48.292Z,44
2016-05-08T06:58:46.686Z,44
2016-05-08T06:59:45.220Z,44
2016-05-08T07:00:43.942Z,44
2016-05-08T07:01:44.835Z,44
2016-05-08T07:02:43.165Z,44
2016-05-08T07:03:41.525Z,44
2016-05-08T07:04:39.684Z,44
2016-05-08T07:05:38.015Z,44
2016-05-08T07:06:36.251Z,44
2016-05-08T07:07:34.661Z,44
2016-05-08T07:08:32.835Z,44
2016-05-08T07:09:31.103Z,44
2016-05-08T07:10:29.450Z,44
2016-05-08T07:11:30.483Z,44
2016-05-08T07:12:29.236Z,43
2016-05-08T07:13:26.895Z,43
2016-05-08T07:14:24.836Z,43
2016-05-08T07:15:22.855Z,43
2016-05-08T07:16:21.013Z,43
2016-05-08T07:17:18.906Z,43
2016-05-08T07:18:16.690Z,43
2016-05-08T07:19:14.583Z,43
2016-05-08T07:20:12.289Z,43
2016-05-08T07:21:13.307Z,43
2016-05-08T07:22:11.077Z,43
2016-05-08T07:23:08.844Z,43
2016-05-08T07:24:06.629Z,43
2016-05-08T07:25:04.428Z,42
2016-05-08T07:26:06.009Z,42
2016-05-08T07:27:07.621Z,42
2016-05-08T07:28:09.311Z,42
2016-05-08T07:29:10.735Z,42
2016-05-08T07:30:12.253Z,42
2016-05-08T07:31:13.257Z,42
2016-05-08T07:32:14.603Z,42
2016-05-08T07:33:15.778Z,42
2016-05-08T07:34:17.234Z,42
2016-05-08T07:35:18.454Z,42
2016-05-08T07:36:19.754Z,42
2016-05-08T07:37:21.070Z,42
2016-05-08T07:38:22.401Z,42
2016-05-08T07:39:23.731Z,42
2016-05-08T07:40:25.077Z,42
2016-05-08T07:41:26.128Z,42
2016-05-08T07:42:27.411Z,42
2016-05-08T07:43:28.898Z,42
2016-05-08T07:44:30.088Z,42
2016-05-08T07:45:31.419Z,42
2016-05-08T07:46:32.734Z,42
2016-05-08T07:47:34.066Z,42
2016-05-08T07:48:35.411Z,42
2016-05-08T07:49:36.726Z,42
2016-05-08T07:50:38.104Z,42
2016-05-08T07:51:39.216Z,42
2016-05-08T07:52:40.547Z,42
2016-05-08T07:53:41.753Z,42
2016-05-08T07:54:43.130Z,42
2016-05-08T07:55:44.386Z,42
2016-05-08T07:56:45.842Z,42
2016-05-08T07:57:47.048Z,42
2016-05-08T07:58:48.363Z,42
2016-05-08T07:59:49.693Z,42
2016-05-08T08:00:51.196Z,42
2016-05-08T08:01:52.043Z,42
2016-05-08T08:02:53.483Z,42
2016-05-08T08:03:54.767Z,42
2016-05-08T08:04:56.067Z,42
2016-05-08T08:05:57.523Z,42
2016-05-08T08:06:58.744Z,42
2016-05-08T08:08:00.059Z,42
2016-05-08T08:09:01.390Z,42
2016-05-08T08:10:02.814Z,42
2016-05-08T08:11:04.051Z,42
2016-05-08T08:12:05.086Z,42
2016-05-08T08:13:06.431Z,42
2016-05-08T08:14:07.778Z,42
2016-05-08T08:15:09.344Z,42
2016-05-08T08:16:10.862Z,42
2016-05-08T08:17:12.442Z,42
2016-05-08T08:18:14.039Z,42
2016-05-08T08:19:15.589Z,42
2016-05-08T08:20:17.154Z,43
2016-05-08T08:21:14.985Z,43
2016-05-08T08:22:16.144Z,43
2016-05-08T08:23:13.912Z,43
2016-05-08T08:24:11.555Z,43
2016-05-08T08:25:09.339Z,43
2016-05-08T08:26:07.123Z,43
2016-05-08T08:27:04.891Z,43
2016-05-08T08:28:02.785Z,43
2016-05-08T08:29:00.444Z,43
2016-05-08T08:29:58.227Z,43
2016-05-08T08:30:56.074Z,43
2016-05-08T08:31:57.077Z,43
2016-05-08T08:32:55.032Z,43
2016-05-08T08:33:53.129Z,44
2016-05-08T08:34:51.412Z,43
2016-05-08T08:35:49.447Z,44
2016-05-08T08:36:47.856Z,44
2016-05-08T08:37:46.015Z,44
2016-05-08T08:38:44.234Z,44
2016-05-08T08:39:42.876Z,44
2016-05-08T08:40:41.364Z,44
2016-05-08T08:41:42.445Z,44
2016-05-08T08:42:41.401Z,45
2016-05-08T08:43:39.762Z,45
2016-05-08T08:44:38.749Z,46
2016-05-08T08:45:38.111Z,46
2016-05-08T08:46:37.520Z,45
2016-05-08T08:47:36.398Z,46
2016-05-08T08:48:36.057Z,46
2016-05-08T08:49:35.685Z,47
2016-05-08T08:50:35.422Z,47
2016-05-08T08:51:36.441Z,48
2016-05-08T08:52:36.865Z,49
2016-05-08T08:53:37.555Z,49
2016-05-08T08:54:38.385Z,50
2016-05-08T08:55:39.451Z,50
2016-05-08T08:56:40.547Z,50
2016-05-08T08:58:43.428Z,52
2016-05-08T08:59:41.399Z,52
2016-05-08T09:00:39.558Z,52
2016-05-08T09:01:40.702Z,52
2016-05-08T09:02:38.845Z,52
2016-05-08T09:03:37.129Z,53
2016-05-08T09:04:35.897Z,53
2016-05-08T09:05:34.696Z,54
2016-05-08T09:06:33.731Z,54
2016-05-08T09:07:33.030Z,54
2016-05-08T09:08:32.221Z,54
2016-05-08T09:09:31.379Z,54
2016-05-08T09:10:30.475Z,54
2016-05-08T09:11:31.495Z,55
2016-05-08T09:12:31.075Z,55
2016-05-08T09:13:30.906Z,56
2016-05-08T09:14:31.236Z,56
2016-05-08T09:15:31.427Z,56
2016-05-08T09:16:31.914Z,56
2016-05-08T09:17:32.119Z,56
2016-05-08T09:18:32.794Z,57
2016-05-08T09:19:33.530Z,57
2016-05-08T09:20:34.644Z,57
2016-05-08T09:21:35.584Z,57
2016-05-08T09:22:36.649Z,58
2016-05-08T09:23:38.167Z,58
2016-05-08T09:24:39.357Z,58
2016-05-08T09:25:40.688Z,58
2016-05-08T09:26:42.300Z,58
2016-05-08T09:27:43.974Z,59
2016-05-08T09:28:41.633Z,59
2016-05-08T09:29:39.355Z,59
2016-05-08T09:30:37.514Z,59
2016-05-08T09:31:38.516Z,59
2016-05-08T09:32:36.676Z,60
2016-05-08T09:33:34.959Z,60
2016-05-08T09:34:33.135Z,60
2016-05-08T09:35:31.793Z,60
2016-05-08T09:36:30.139Z,61
2016-05-08T09:37:29.126Z,61
2016-05-08T09:38:29.020Z,61
2016-05-08T09:39:26.726Z,61
2016-05-08T09:40:25.431Z,61
2016-05-08T09:41:26.450Z,61
2016-05-08T09:42:25.515Z,61
2016-05-08T09:43:24.548Z,61
2016-05-08T09:44:23.598Z,62
2016-05-08T09:45:22.897Z,62
2016-05-08T09:46:22.197Z,62
2016-05-08T09:47:21.498Z,62
2016-05-08T09:48:20.859Z,62
2016-05-08T09:49:20.097Z,62
2016-05-08T09:50:19.724Z,62
2016-05-08T09:51:20.711Z,63
2016-05-08T09:52:20.573Z,63
2016-05-08T09:53:20.357Z,63
2016-05-08T09:54:20.172Z,63
2016-05-08T09:55:19.940Z,63
2016-05-08T09:56:19.694Z,63
2016-05-08T09:57:19.571Z,63
2016-05-08T09:58:19.418Z,62
2016-05-08T09:59:18.686Z,60
2016-05-08T10:00:17.313Z,59
2016-05-08T10:01:18.410Z,58
2016-05-08T10:02:19.990Z,58
2016-05-08T10:03:21.384Z,58
2016-05-08T10:04:23.043Z,56
2016-05-08T10:05:23.640Z,56
2016-05-08T10:06:24.173Z,56
2016-05-08T10:07:24.754Z,56
2016-05-08T10:08:25.195Z,56
2016-05-08T10:09:25.493Z,56
2016-05-08T10:10:25.762Z,55
2016-05-08T10:11:26.764Z,56
2016-05-08T10:12:27.080Z,56
2016-05-08T10:13:27.380Z,56
2016-05-08T10:14:27.835Z,56
2016-05-08T10:15:28.135Z,56
2016-05-08T10:16:28.356Z,56
2016-05-08T10:17:28.625Z,56
2016-05-08T10:18:29.222Z,56
2016-05-08T10:19:29.802Z,56
2016-05-08T10:20:30.414Z,55
2016-05-08T10:21:31.433Z,55
2016-05-08T10:22:31.450Z,56
2016-05-08T10:23:31.777Z,55
2016-05-08T10:24:31.889Z,55
2016-05-08T10:25:31.939Z,55
2016-05-08T10:26:31.738Z,55
2016-05-08T10:27:31.553Z,55
2016-05-08T10:28:31.368Z,54
2016-05-08T10:29:31.027Z,54
2016-05-08T10:30:30.280Z,54
2016-05-08T10:31:31.330Z,54
2016-05-08T10:32:30.597Z,54
2016-05-08T10:33:29.897Z,54
2016-05-08T10:34:31.572Z,55
2016-05-08T10:35:29.027Z,55
2016-05-08T10:36:28.827Z,55
2016-05-08T10:37:28.673Z,55
2016-05-08T10:38:28.504Z,55
2016-05-08T10:40:28.103Z,54
2016-05-08T10:41:29.121Z,54
2016-05-08T10:42:28.687Z,54
2016-05-08T10:43:28.362Z,54
2016-05-08T10:44:27.801Z,55
2016-05-08T10:45:27.632Z,55
2016-05-08T10:46:27.667Z,55
2016-05-08T10:47:27.467Z,55
2016-05-08T10:48:27.219Z,55
2016-05-08T10:49:27.362Z,55
2016-05-08T10:50:27.256Z,55
2016-05-08T10:51:28.228Z,55
2016-05-08T10:52:28.042Z,55
2016-05-08T10:53:27.858Z,55
2016-05-08T10:54:27.656Z,55
2016-05-08T10:55:27.409Z,55
2016-05-08T10:56:27.334Z,55
2016-05-08T10:57:27.087Z,55
2016-05-08T10:58:27.199Z,55
2016-05-08T10:59:26.952Z,56
2016-05-08T11:00:27.330Z,56
2016-05-08T11:01:28.347Z,56
2016-05-08T11:02:28.913Z,56
2016-05-08T11:03:29.587Z,56
2016-05-08T11:04:29.980Z,56
2016-05-08T11:05:30.482Z,56
2016-05-08T11:06:30.688Z,55
2016-05-08T11:07:30.677Z,55
2016-05-08T11:08:30.804Z,56
2016-05-08T11:09:31.118Z,56
2016-05-08T11:10:31.481Z,56
2016-05-08T11:11:32.499Z,56
2016-05-08T11:12:32.815Z,56
2016-05-08T11:13:33.395Z,56
2016-05-08T11:14:33.898Z,56
2016-05-08T11:15:34.526Z,56
2016-05-08T11:16:35.091Z,56
2016-05-08T11:17:35.407Z,56
2016-05-08T11:18:35.721Z,56
2016-05-08T11:19:36.037Z,56
2016-05-08T11:20:36.351Z,56
2016-05-08T11:21:37.433Z,56
2016-05-08T11:22:37.872Z,56
2016-05-08T11:23:38.313Z,57
2016-05-08T11:24:39.144Z,57
2016-05-08T11:25:39.975Z,56
2016-05-08T11:26:40.524Z,56
2016-05-08T11:27:40.777Z,55
2016-05-08T11:28:40.655Z,55
2016-05-08T11:29:40.766Z,56
2016-05-08T11:30:41.097Z,56
2016-05-08T11:31:42.099Z,56
2016-05-08T11:32:42.431Z,56
2016-05-08T11:33:43.012Z,56
2016-05-08T11:34:43.686Z,56
2016-05-08T11:35:44.127Z,56
2016-05-08T11:36:44.566Z,55
2016-05-08T11:37:44.507Z,55
2016-05-08T11:38:44.572Z,55
2016-05-08T11:39:44.746Z,55
2016-05-08T11:40:44.437Z,54
2016-05-08T11:41:45.627Z,53
2016-05-08T11:42:44.567Z,53
2016-05-08T11:43:43.367Z,53
2016-05-08T11:44:42.151Z,53
2016-05-08T11:45:41.200Z,54
2016-05-08T11:46:40.500Z,54
2016-05-08T11:47:39.814Z,54
2016-05-08T11:48:39.522Z,55
2016-05-08T11:49:39.254Z,55
2016-05-08T11:50:39.439Z,56
2016-05-08T11:51:40.484Z,56
2016-05-08T11:52:41.091Z,57
2016-05-08T11:53:41.943Z,57
2016-05-08T11:54:43.039Z,58
2016-05-08T11:55:44.368Z,58
2016-05-08T11:56:45.964Z,59
2016-05-08T11:57:43.763Z,59
2016-05-08T11:58:41.680Z,59
2016-05-08T11:59:39.657Z,60
2016-05-08T12:00:37.946Z,60
2016-05-08T12:01:39.095Z,60
2016-05-08T12:02:37.540Z,61
2016-05-08T12:03:36.327Z,61
2016-05-08T12:04:35.409Z,61
2016-05-08T12:05:34.430Z,62
2016-05-08T12:06:33.731Z,62
2016-05-08T12:07:33.048Z,62
2016-05-08T12:08:32.536Z,62
2016-05-08T12:09:32.134Z,62
2016-05-08T12:10:31.997Z,62
2016-05-08T12:11:33.062Z,63
2016-05-08T12:12:33.207Z,63
2016-05-08T12:13:33.162Z,63
2016-05-08T12:14:33.461Z,63
2016-05-08T12:15:33.793Z,64
2016-05-08T12:16:34.358Z,64
2016-05-08T12:17:34.861Z,64
2016-05-08T12:18:35.488Z,64
2016-05-08T12:19:36.085Z,64
2016-05-08T12:20:36.963Z,64
2016-05-08T12:22:38.797Z,64
2016-05-08T12:23:39.611Z,64
2016-05-08T12:24:40.442Z,65
2016-05-08T12:25:41.632Z,65
2016-05-08T12:26:42.588Z,65
2016-05-08T12:27:43.606Z,65
2016-05-08T12:28:44.969Z,65
2016-05-08T12:29:45.815Z,65
2016-05-08T12:30:47.193Z,65
2016-05-08T12:31:48.227Z,65
2016-05-08T12:32:49.557Z,65
2016-05-08T12:34:52.222Z,65
2016-05-08T12:35:53.538Z,65
2016-05-08T12:36:54.805Z,65
2016-05-08T12:37:56.261Z,65
2016-05-08T12:38:57.545Z,66
2016-05-08T12:39:59.110Z,66
2016-05-08T12:41:00.769Z,66
2016-05-08T12:42:01.771Z,66
2016-05-08T12:43:03.540Z,66
2016-05-08T12:44:04.949Z,66
2016-05-08T12:45:06.467Z,66
2016-05-08T12:46:04.314Z,66
2016-05-08T12:47:02.098Z,66
2016-05-08T12:47:59.912Z,66
2016-05-08T12:49:01.384Z,65
2016-05-08T12:50:02.902Z,65
2016-05-08T12:51:03.905Z,64
2016-05-08T12:52:04.940Z,64
2016-05-08T12:53:05.520Z,63
2016-05-08T12:54:05.820Z,63
2016-05-08T12:55:05.885Z,63
2016-05-08T12:56:05.934Z,62
2016-05-08T12:57:05.874Z,62
2016-05-08T12:58:05.080Z,62
2016-05-08T12:59:04.739Z,62
2016-05-08T13:00:03.914Z,61
2016-05-08T13:01:03.027Z,61
2016-05-08T13:02:04.169Z,60
2016-05-08T13:03:02.578Z,60
2016-05-08T13:04:00.877Z,60
2016-05-08T13:04:59.349Z,60
2016-05-08T13:05:57.946Z,60
2016-05-08T13:06:56.276Z,58
2016-05-08T13:07:57.826Z,57
2016-05-08T13:08:59.001Z,57
2016-05-08T13:09:59.832Z,57
2016-05-08T13:11:00.709Z,57
2016-05-08T13:12:01.617Z,57
2016-05-08T13:13:02.824Z,58
2016-05-08T13:14:03.951Z,58
2016-05-08T13:15:05.282Z,58
2016-05-08T13:16:06.675Z,58
2016-05-08T13:17:08.007Z,58
2016-05-08T13:18:09.447Z,58
2016-05-08T13:19:10.606Z,58
2016-05-08T13:20:11.998Z,57
2016-05-08T13:21:13.080Z,57
2016-05-08T13:22:14.161Z,57
2016-05-08T13:23:14.975Z,57
2016-05-08T13:24:15.806Z,56
2016-05-08T13:25:16.309Z,56
2016-05-08T13:26:16.936Z,56
2016-05-08T13:27:17.674Z,56
2016-05-08T13:28:18.427Z,56
2016-05-08T13:29:18.398Z,56
2016-05-08T13:30:18.713Z,56
2016-05-08T13:31:19.091Z,56
2016-05-08T13:32:20.047Z,56
2016-05-08T13:33:20.362Z,56
2016-05-08T13:34:20.974Z,56
2016-05-08T13:35:21.555Z,56
2016-05-08T13:36:22.057Z,56
2016-05-08T13:37:22.638Z,56
2016-05-08T13:38:23.266Z,56
2016-05-08T13:39:23.832Z,57
2016-05-08T13:40:24.599Z,57
2016-05-08T13:41:25.649Z,57
2016-05-08T13:42:26.496Z,56
2016-05-08T13:43:27.076Z,56
2016-05-08T13:44:27.704Z,56
2016-05-08T13:45:28.395Z,56
2016-05-08T13:46:28.537Z,55
2016-05-08T13:47:28.634Z,55
2016-05-08T13:48:28.448Z,55
2016-05-08T13:49:28.201Z,55
2016-05-08T13:50:28.377Z,56
2016-05-08T13:51:28.706Z,56
2016-05-08T13:53:30.150Z,56
2016-05-08T13:54:30.715Z,57
2016-05-08T13:55:31.437Z,57
2016-05-08T13:56:32.502Z,58
2016-05-08T13:57:33.880Z,58
2016-05-08T13:58:35.867Z,58
2016-05-08T13:59:37.135Z,58
2016-05-08T14:00:38.653Z,58
2016-05-08T14:01:40.328Z,58
2016-05-08T14:02:41.362Z,58
2016-05-08T14:03:42.583Z,57
2016-05-08T14:04:43.649Z,57
2016-05-08T14:05:44.479Z,57
2016-05-08T14:06:45.419Z,56
2016-05-08T14:07:45.859Z,56
2016-05-08T14:08:46.377Z,56
2016-05-08T14:09:47.005Z,56
2016-05-08T14:10:47.446Z,55
2016-05-08T14:11:47.105Z,55
2016-05-08T14:12:48.201Z,55
2016-05-08T14:13:48.266Z,55
2016-05-08T14:14:47.815Z,55
2016-05-08T14:15:47.568Z,55
2016-05-08T14:16:47.446Z,55
2016-05-08T14:17:47.246Z,55
2016-05-08T14:18:47.076Z,55